createdAt,value
2023-01-23T00:01:05.499Z,1.52
2023-01-23T00:03:33.463Z,1.45
2023-01-23T00:08:29.440Z,1.10
2023-01-23T00:10:56.532Z,0.98
2023-01-23T00:13:23.563Z,1.20
2023-01-23T00:15:50.499Z,1.43
2023-01-23T00:18:17.774Z,1.33
2023-01-23T00:20:44.517Z,1.65
2023-01-23T00:23:12.597Z,1.10
2023-01-23T00:28:06.694Z,1.08
2023-01-23T00:30:34.182Z,1.40
2023-01-23T00:33:01.184Z,1.30
2023-01-23T00:35:28.123Z,1.27
2023-01-23T00:37:55.323Z,0.90
2023-01-23T00:40:22.367Z,1.15
2023-01-23T00:42:49.215Z,1.63
2023-01-23T00:45:16.019Z,1.15
2023-01-23T00:47:42.778Z,0.93
2023-01-23T00:50:10.316Z,1.77
2023-01-23T00:52:37.081Z,1.60
2023-01-23T00:55:04.651Z,1.25
2023-01-23T00:57:31.839Z,1.50
2023-01-23T00:59:58.569Z,1.58
2023-01-23T01:02:25.469Z,1.30
2023-01-23T01:04:52.226Z,0.88
2023-01-23T01:07:18.966Z,1.17
2023-01-23T01:09:45.768Z,1.65
2023-01-23T01:12:12.541Z,1.05
2023-01-23T01:14:39.264Z,0.90
2023-01-23T01:17:05.959Z,1.35
2023-01-23T01:19:32.874Z,0.88
2023-01-23T01:21:59.696Z,0.93
2023-01-23T01:24:26.717Z,1.38
2023-01-23T01:26:53.706Z,1.37
2023-01-23T01:29:20.441Z,0.57
2023-01-23T01:31:47.199Z,1.00
2023-01-23T01:34:14.101Z,0.73
2023-01-23T01:36:40.929Z,1.02
2023-01-23T01:39:07.983Z,0.82
2023-01-23T01:41:35.971Z,0.87
2023-01-23T01:46:32.450Z,0.65
2023-01-23T01:49:14.369Z,0.70
2023-01-23T01:51:53.481Z,1.70
2023-01-23T01:54:32.985Z,1.77
2023-01-23T01:57:30.900Z,0.95
2023-01-23T02:00:09.121Z,1.08
2023-01-23T02:02:40.765Z,1.90
2023-01-23T02:05:15.035Z,1.80
2023-01-23T02:07:56.960Z,1.15
2023-01-23T02:10:24.365Z,1.13
2023-01-23T02:12:52.503Z,1.30
2023-01-23T02:15:22.711Z,0.90
2023-01-23T02:17:52.452Z,1.02
2023-01-23T02:20:25.954Z,1.15
2023-01-23T02:23:09.011Z,0.75
2023-01-23T02:25:44.929Z,1.70
2023-01-23T02:28:13.063Z,1.05
2023-01-23T02:30:42.484Z,1.30
2023-01-23T02:33:21.230Z,2.17
2023-01-23T02:35:48.623Z,0.80
2023-01-23T02:38:15.781Z,1.08
2023-01-23T02:40:43.302Z,0.80
2023-01-23T02:43:14.571Z,1.02
2023-01-23T02:45:41.774Z,1.75
2023-01-23T02:48:09.071Z,1.52
2023-01-23T02:50:36.079Z,1.08
2023-01-23T02:53:03.009Z,1.27
2023-01-23T02:55:30.677Z,1.67
2023-01-23T02:58:20.457Z,1.40
2023-01-23T03:00:48.200Z,1.08
2023-01-23T03:03:16.154Z,1.27
2023-01-23T03:05:43.292Z,2.40
2023-01-23T03:08:10.090Z,1.92
2023-01-23T03:10:37.214Z,1.63
2023-01-23T03:13:07.586Z,1.35
2023-01-23T03:15:38.625Z,1.95
2023-01-23T03:18:09.841Z,1.15
2023-01-23T03:20:41.715Z,1.63
2023-01-23T03:23:09.837Z,1.90
2023-01-23T03:25:37.269Z,1.25
2023-01-23T03:28:04.301Z,1.05
2023-01-23T03:30:31.428Z,1.43
2023-01-23T03:32:58.554Z,1.92
2023-01-23T03:35:25.304Z,1.83
2023-01-23T03:37:52.581Z,1.30
2023-01-23T03:40:40.596Z,1.50
2023-01-23T03:43:07.564Z,1.00
2023-01-23T03:45:34.369Z,1.55
2023-01-23T03:48:01.230Z,1.20
2023-01-23T03:50:28.021Z,0.65
2023-01-23T03:52:54.852Z,1.50
2023-01-23T03:55:21.791Z,1.42
2023-01-23T03:57:48.564Z,1.17
2023-01-23T04:00:17.206Z,0.77
2023-01-23T04:02:44.020Z,1.40
2023-01-23T04:05:10.938Z,1.38
2023-01-23T04:07:37.846Z,1.02
2023-01-23T04:10:04.923Z,1.52
2023-01-23T04:12:31.816Z,1.23
2023-01-23T04:14:58.667Z,1.60
2023-01-23T04:17:25.476Z,1.30
2023-01-23T04:19:52.321Z,1.40
2023-01-23T04:22:19.375Z,1.42
2023-01-23T04:24:46.136Z,1.27
2023-01-23T04:27:12.806Z,2.00
2023-01-23T04:29:39.628Z,1.60
2023-01-23T04:32:08.773Z,1.70
2023-01-23T04:34:35.897Z,1.58
2023-01-23T04:37:02.550Z,1.50
2023-01-23T04:39:29.410Z,1.10
2023-01-23T04:41:56.396Z,1.45
2023-01-23T04:44:24.397Z,1.60
2023-01-23T04:49:24.905Z,1.10
2023-01-23T04:51:52.279Z,0.77
2023-01-23T04:54:20.558Z,1.05
2023-01-23T04:56:48.209Z,1.45
2023-01-23T04:59:16.925Z,1.40
2023-01-23T05:01:44.779Z,1.58
2023-01-23T05:04:11.564Z,1.38
2023-01-23T05:06:38.342Z,1.65
2023-01-23T05:09:05.788Z,1.67
2023-01-23T05:11:33.202Z,1.85
2023-01-23T05:14:00.465Z,1.75
2023-01-23T05:16:27.362Z,1.42
2023-01-23T05:18:54.695Z,1.65
2023-01-23T05:21:21.522Z,1.52
2023-01-23T05:23:48.540Z,1.25
2023-01-23T05:26:15.561Z,1.50
2023-01-23T05:28:42.384Z,1.63
2023-01-23T05:31:09.483Z,1.70
2023-01-23T05:33:36.440Z,2.13
2023-01-23T05:36:06.921Z,1.33
2023-01-23T05:38:33.844Z,1.15
2023-01-23T05:41:01.322Z,1.60
2023-01-23T05:43:29.376Z,1.38
2023-01-23T05:45:59.359Z,1.35
2023-01-23T05:48:26.481Z,1.00
2023-01-23T05:50:53.596Z,1.17
2023-01-23T05:53:20.424Z,1.45
2023-01-23T05:55:47.704Z,1.67
2023-01-23T05:58:15.976Z,0.98
2023-01-23T06:00:42.980Z,1.70
2023-01-23T06:03:09.986Z,1.40
2023-01-23T06:05:36.792Z,1.30
2023-01-23T06:08:03.929Z,1.17
2023-01-23T06:10:30.773Z,2.08
2023-01-23T06:12:58.005Z,2.03
2023-01-23T06:15:25.337Z,1.50
2023-01-23T06:17:52.108Z,1.73
2023-01-23T06:20:19.843Z,6.72
2023-01-23T06:22:46.919Z,3.00
2023-01-23T06:25:13.753Z,2.78
2023-01-23T06:27:41.171Z,2.67
2023-01-23T06:30:08.710Z,3.28
2023-01-23T06:32:35.758Z,3.53
2023-01-23T06:35:02.778Z,3.97
2023-01-23T06:37:29.491Z,4.30
2023-01-23T06:39:56.404Z,4.10
2023-01-23T06:42:23.450Z,3.55
2023-01-23T06:44:50.362Z,2.70
2023-01-23T06:47:18.451Z,3.10
2023-01-23T06:52:12.246Z,5.00
2023-01-23T06:54:38.927Z,6.28
2023-01-23T06:57:05.767Z,5.85
2023-01-23T06:59:35.800Z,6.78
2023-01-23T07:02:02.582Z,4.13
2023-01-23T07:04:29.367Z,4.75
2023-01-23T07:06:56.599Z,4.05
2023-01-23T07:09:23.422Z,5.40
2023-01-23T07:11:50.558Z,3.58
2023-01-23T07:14:20.483Z,4.05
2023-01-23T07:16:47.662Z,4.95
2023-01-23T07:19:14.382Z,4.40
2023-01-23T07:21:41.612Z,4.53
2023-01-23T07:24:08.496Z,5.25
2023-01-23T07:26:35.218Z,5.75
2023-01-23T07:29:02.056Z,8.20
2023-01-23T07:31:29.094Z,7.22
2023-01-23T07:33:55.897Z,4.73
2023-01-23T07:36:22.620Z,7.35
2023-01-23T07:38:49.384Z,7.38
2023-01-23T07:41:16.479Z,6.40
2023-01-23T07:43:43.859Z,4.73
2023-01-23T07:46:10.807Z,5.32
2023-01-23T07:48:38.167Z,5.47
2023-01-23T07:51:05.953Z,3.75
2023-01-23T07:55:59.787Z,3.40
2023-01-23T07:58:26.847Z,4.22
2023-01-23T08:00:53.668Z,6.13
2023-01-23T08:03:21.306Z,6.65
2023-01-23T08:05:54.206Z,8.45
2023-01-23T08:08:21.098Z,7.38
2023-01-23T08:10:49.711Z,7.20
2023-01-23T08:13:17.679Z,7.72
2023-01-23T08:15:44.508Z,6.72
2023-01-23T08:18:11.428Z,5.55
2023-01-23T08:20:38.396Z,5.82
2023-01-23T08:23:05.223Z,6.50
2023-01-23T08:25:32.071Z,5.80
2023-01-23T08:27:59.508Z,5.25
2023-01-23T08:30:26.279Z,4.47
2023-01-23T08:32:53.199Z,4.53
2023-01-23T08:35:20.088Z,4.10
2023-01-23T08:37:46.868Z,3.03
2023-01-23T08:40:13.821Z,3.00
2023-01-23T08:42:40.793Z,2.83
2023-01-23T08:45:08.344Z,3.15
2023-01-23T08:47:37.007Z,6.18
2023-01-23T08:50:05.799Z,4.70
2023-01-23T08:52:34.801Z,3.78
2023-01-23T08:55:01.767Z,2.95
2023-01-23T08:57:28.517Z,2.55
2023-01-23T08:59:55.356Z,2.90
2023-01-23T09:02:22.321Z,3.13
2023-01-23T09:04:50.439Z,2.30
2023-01-23T09:07:17.166Z,2.90
2023-01-23T09:09:43.953Z,2.60
2023-01-23T09:12:10.972Z,2.53
2023-01-23T09:14:37.984Z,3.10
2023-01-23T09:17:05.714Z,3.22
2023-01-23T09:19:33.843Z,3.22
2023-01-23T09:22:00.596Z,2.10
2023-01-23T09:24:27.507Z,2.72
2023-01-23T09:26:54.295Z,3.67
2023-01-23T09:29:21.172Z,2.83
2023-01-23T09:31:47.951Z,2.20
2023-01-23T09:34:17.059Z,3.25
2023-01-23T09:36:44.410Z,4.63
2023-01-23T09:39:11.245Z,3.75
2023-01-23T09:41:39.504Z,2.05
2023-01-23T09:44:16.482Z,4.65
2023-01-23T09:46:53.408Z,8.05
2023-01-23T09:49:35.564Z,2.22
2023-01-23T09:52:12.746Z,2.38
2023-01-23T09:54:49.087Z,2.30
2023-01-23T09:57:21.302Z,2.10
2023-01-23T10:00:00.330Z,2.67
2023-01-23T10:02:28.918Z,2.47
2023-01-23T10:05:00.841Z,2.35
2023-01-23T10:07:36.807Z,2.40
2023-01-23T10:10:19.231Z,2.58
2023-01-23T10:13:09.539Z,1.75
2023-01-23T10:15:39.099Z,1.55
2023-01-23T10:18:24.959Z,1.83
2023-01-23T10:21:34.625Z,2.28
2023-01-23T10:24:24.697Z,2.35
2023-01-23T10:26:55.508Z,1.85
2023-01-23T10:29:38.407Z,2.20
2023-01-23T10:32:25.235Z,2.20
2023-01-23T10:35:21.466Z,2.65
2023-01-23T10:38:27.434Z,2.08
2023-01-23T10:41:25.953Z,2.20
2023-01-23T10:43:57.392Z,2.42
2023-01-23T10:46:40.818Z,2.00
2023-01-23T10:54:51.784Z,3.20
2023-01-23T10:57:18.441Z,3.47
2023-01-23T11:00:05.405Z,2.63
2023-01-23T11:02:37.467Z,2.80
2023-01-23T11:05:51.850Z,2.70
2023-01-23T11:08:40.494Z,3.00
2023-01-23T11:11:16.011Z,2.38
2023-01-23T11:13:44.623Z,3.03
2023-01-23T11:16:21.140Z,3.00
2023-01-23T11:19:15.346Z,2.78
2023-01-23T11:22:00.593Z,2.80
2023-01-23T11:24:41.055Z,5.50
2023-01-23T11:27:26.712Z,2.65
2023-01-23T11:30:11.584Z,3.05
2023-01-23T11:32:59.522Z,2.20
2023-01-23T11:35:58.452Z,2.70
2023-01-23T11:38:42.100Z,1.95
2023-01-23T11:41:15.462Z,3.80
2023-01-23T11:43:42.657Z,3.70
2023-01-23T11:46:30.669Z,3.33
2023-01-23T11:49:06.611Z,2.80
2023-01-23T11:51:48.928Z,3.55
2023-01-23T11:54:48.292Z,3.00
2023-01-23T11:57:40.748Z,3.05
2023-01-23T12:00:13.589Z,3.17
2023-01-23T12:03:19.231Z,2.40
2023-01-23T12:06:23.416Z,2.60
2023-01-23T12:09:20.554Z,2.60
2023-01-23T12:12:12.258Z,1.90
2023-01-23T12:15:23.261Z,1.58
2023-01-23T12:17:55.893Z,1.67
2023-01-23T12:20:23.272Z,2.75
2023-01-23T12:23:08.765Z,2.58
2023-01-23T12:25:45.408Z,1.63
2023-01-23T12:28:36.744Z,2.00
2023-01-23T12:31:27.942Z,1.65
2023-01-23T12:34:00.959Z,1.45
2023-01-23T12:37:14.207Z,2.00
2023-01-23T12:40:12.827Z,1.40
2023-01-23T12:43:10.410Z,1.65
2023-01-23T12:48:28.859Z,1.20
2023-01-23T12:51:19.311Z,1.65
2023-01-23T12:53:52.169Z,1.30
2023-01-23T12:56:27.637Z,1.98
2023-01-23T12:59:30.334Z,1.50
2023-01-23T13:02:12.385Z,2.08
2023-01-23T13:04:53.609Z,1.92
2023-01-23T13:07:35.662Z,1.98
2023-01-23T13:10:47.997Z,2.53
2023-01-23T13:13:50.896Z,1.77
2023-01-23T13:17:00.852Z,1.17
2023-01-23T13:20:27.933Z,2.15
2023-01-23T13:27:17.286Z,1.55
2023-01-23T13:29:50.604Z,1.83
2023-01-23T13:33:17.959Z,2.05
2023-01-23T13:35:58.660Z,2.00
2023-01-23T13:42:14.194Z,1.60
2023-01-23T13:45:36.511Z,2.13
2023-01-23T14:31:02.681Z,1.58
2023-01-23T14:33:40.528Z,2.15
2023-01-23T14:36:13.026Z,1.80
2023-01-23T14:38:42.339Z,1.35
2023-01-23T14:41:09.439Z,1.58
2023-01-23T14:43:37.676Z,1.42
2023-01-23T14:46:22.038Z,1.73
2023-01-23T14:48:55.412Z,1.38
2023-01-23T14:51:27.591Z,1.77
2023-01-23T14:54:00.591Z,1.75
2023-01-23T14:56:37.147Z,2.17
2023-01-23T15:03:41.999Z,2.05
2023-01-23T15:06:20.764Z,1.73
2023-01-23T15:21:52.846Z,1.40
2023-01-23T15:25:07.143Z,2.40
2023-01-23T15:35:55.799Z,1.70
2023-01-23T15:38:51.612Z,2.08
2023-01-23T15:41:33.791Z,2.40
2023-01-23T15:44:14.029Z,1.92
2023-01-23T15:47:35.060Z,1.92
2023-01-23T15:50:03.154Z,1.90
2023-01-23T15:52:45.653Z,1.73
2023-01-23T15:55:13.415Z,2.05
2023-01-23T15:57:43.366Z,2.10
2023-01-23T16:00:36.799Z,2.30
2023-01-23T16:03:04.056Z,2.40
2023-01-23T16:05:55.640Z,2.65
2023-01-23T16:08:31.556Z,2.30
2023-01-23T16:10:58.528Z,1.85
2023-01-23T16:13:25.559Z,2.85
2023-01-23T16:15:55.110Z,1.83
2023-01-23T16:18:50.452Z,1.98
2023-01-23T16:21:19.710Z,2.22
2023-01-23T16:23:47.925Z,2.50
2023-01-23T16:26:23.787Z,1.52
2023-01-23T16:28:55.348Z,2.22
2023-01-23T16:31:25.267Z,1.98
2023-01-23T16:33:56.085Z,2.28
2023-01-23T16:36:25.051Z,1.27
2023-01-23T16:38:57.960Z,2.50
2023-01-23T16:41:41.938Z,1.45
2023-01-23T16:59:39.375Z,1.67
2023-01-23T17:02:25.504Z,1.95
2023-01-23T17:04:52.456Z,2.53
2023-01-23T17:07:20.371Z,2.28
2023-01-23T17:09:49.407Z,2.70
2023-01-23T17:12:23.020Z,2.10
2023-01-23T17:14:52.807Z,2.30
2023-01-23T17:17:29.588Z,4.82
2023-01-23T17:19:57.753Z,3.28
2023-01-23T17:22:27.789Z,2.88
2023-01-23T17:24:56.212Z,3.88
2023-01-23T17:27:24.075Z,2.42
2023-01-23T17:29:51.287Z,2.15
2023-01-23T17:32:33.349Z,1.85
2023-01-23T17:35:03.329Z,2.35
2023-01-23T17:37:37.218Z,1.80
2023-01-23T17:40:17.538Z,2.08
2023-01-23T17:57:14.718Z,3.33
2023-01-23T17:59:56.734Z,3.65
2023-01-23T18:02:40.109Z,5.10
2023-01-23T18:05:14.294Z,3.88
2023-01-23T18:07:54.179Z,4.05
2023-01-23T18:13:35.594Z,3.28
2023-01-23T18:16:25.269Z,3.13
2023-01-23T18:19:00.067Z,3.70
2023-01-23T18:21:38.023Z,3.53
2023-01-23T18:24:08.467Z,2.85
2023-01-23T18:26:56.247Z,2.55
2023-01-23T18:32:00.434Z,3.10
2023-01-23T18:34:44.494Z,2.63
2023-01-23T18:37:46.156Z,2.63
2023-01-23T18:43:16.749Z,2.65
2023-01-23T18:46:34.089Z,2.38
2023-01-23T18:49:42.897Z,3.25
2023-01-23T18:53:08.482Z,2.10
2023-01-23T19:27:58.955Z,1.98
2023-01-23T19:30:27.560Z,2.00
2023-01-23T19:32:58.852Z,1.40
2023-01-23T19:35:26.669Z,1.35
2023-01-23T19:37:53.537Z,1.65
2023-01-23T19:40:20.814Z,1.15
2023-01-23T19:42:58.469Z,1.40
2023-01-23T19:45:34.350Z,1.50
2023-01-23T19:48:01.677Z,1.50
2023-01-23T19:50:29.381Z,2.05
2023-01-23T19:52:57.206Z,1.83
2023-01-23T19:55:34.363Z,1.83
2023-01-23T19:58:02.743Z,3.13
2023-01-23T20:00:32.334Z,1.52
2023-01-23T20:03:01.450Z,1.38
2023-01-23T20:05:29.770Z,2.08
2023-01-23T20:07:58.240Z,1.05
2023-01-23T20:10:52.067Z,0.88
2023-01-23T20:13:19.964Z,1.83
2023-01-23T20:15:51.685Z,1.38
2023-01-23T20:18:19.382Z,1.80
2023-01-23T20:20:58.054Z,2.15
2023-01-23T20:23:27.193Z,1.40
2023-01-23T20:25:59.784Z,1.55
2023-01-23T20:28:28.342Z,1.15
2023-01-23T20:30:56.637Z,1.75
2023-01-23T20:33:25.403Z,1.30
2023-01-23T20:35:54.806Z,1.65
2023-01-23T20:38:27.157Z,0.88
2023-01-23T20:40:55.409Z,1.58
2023-01-23T20:43:24.317Z,2.25
2023-01-23T20:45:53.556Z,2.17
2023-01-23T20:48:21.801Z,1.40
2023-01-23T20:50:57.640Z,1.45
2023-01-23T20:53:31.823Z,1.60
2023-01-23T20:56:08.819Z,1.85
2023-01-23T20:58:59.514Z,1.52
2023-01-23T21:01:30.066Z,1.88
2023-01-23T21:03:57.772Z,2.95
2023-01-23T21:06:28.712Z,2.13
2023-01-23T21:08:58.408Z,2.15
2023-01-23T21:11:26.823Z,1.33
2023-01-23T21:13:55.160Z,1.23
2023-01-23T21:16:22.360Z,1.75
2023-01-23T21:18:49.977Z,1.33
2023-01-23T21:21:20.731Z,1.60
2023-01-23T21:23:49.751Z,1.58
2023-01-23T21:26:24.620Z,1.52
2023-01-23T21:28:54.198Z,1.52
2023-01-23T21:31:30.555Z,1.98
2023-01-23T21:34:01.565Z,1.33
2023-01-23T21:36:30.084Z,1.25
2023-01-23T21:38:57.439Z,1.70
2023-01-23T21:41:24.728Z,1.50
2023-01-23T21:43:51.906Z,1.75
2023-01-23T21:46:18.978Z,1.13
2023-01-23T21:48:46.049Z,2.03
2023-01-23T21:51:15.566Z,2.20
2023-01-23T21:53:44.863Z,2.30
2023-01-23T21:56:14.583Z,2.25
2023-01-23T21:58:44.842Z,1.30
2023-01-23T22:01:33.641Z,2.47
2023-01-23T22:04:05.840Z,2.50
2023-01-23T22:06:33.864Z,2.88
2023-01-23T22:13:11.827Z,1.90
2023-01-23T22:15:39.414Z,2.63
2023-01-23T22:18:06.228Z,2.20
2023-01-23T22:20:33.970Z,2.22
2023-01-23T22:23:01.402Z,1.95
2023-01-23T22:25:28.065Z,1.15
2023-01-23T22:27:54.933Z,2.35
2023-01-23T22:30:21.868Z,2.38
2023-01-23T22:32:48.505Z,2.20
2023-01-23T22:35:15.462Z,1.95
2023-01-23T22:37:43.819Z,1.63
2023-01-23T22:40:11.472Z,2.72
2023-01-23T22:42:38.316Z,1.85
2023-01-23T22:45:05.616Z,2.42
2023-01-23T22:47:32.705Z,2.22
2023-01-23T22:49:59.680Z,2.20
2023-01-23T22:52:27.009Z,2.50
2023-01-23T22:54:53.827Z,1.85
2023-01-23T22:57:20.480Z,2.20
2023-01-23T22:59:48.548Z,2.80
2023-01-23T23:02:16.121Z,1.77
2023-01-23T23:04:42.950Z,2.28
2023-01-23T23:07:10.858Z,3.58
2023-01-23T23:09:37.757Z,2.28
2023-01-23T23:12:04.636Z,1.83
2023-01-23T23:14:31.525Z,3.33
2023-01-23T23:16:58.502Z,2.60
2023-01-23T23:19:25.948Z,1.60
2023-01-23T23:21:52.730Z,2.47
2023-01-23T23:24:19.958Z,1.73
2023-01-23T23:26:48.160Z,2.28
2023-01-23T23:29:16.046Z,3.20
2023-01-23T23:31:43.099Z,2.42
2023-01-23T23:34:12.677Z,3.10
2023-01-23T23:36:39.742Z,2.83
2023-01-23T23:39:06.449Z,1.83
2023-01-23T23:41:33.492Z,2.38
2023-01-23T23:44:00.508Z,2.85
2023-01-23T23:46:27.375Z,3.00
2023-01-23T23:48:57.313Z,2.83
2023-01-23T23:51:26.689Z,2.28
2023-01-23T23:53:53.711Z,2.72
2023-01-23T23:56:23.860Z,2.88
2023-01-23T23:58:51.451Z,3.22
